createdAt,value
2018-04-19T00:01:12.443Z,9.80
2018-04-19T00:03:40.961Z,10.10
2018-04-19T00:06:09.373Z,9.73
2018-04-19T00:08:37.753Z,9.57
2018-04-19T00:11:06.183Z,9.80
2018-04-19T00:13:34.576Z,11.10
2018-04-19T00:16:03.011Z,10.13
2018-04-19T00:18:31.390Z,9.00
2018-04-19T00:20:59.752Z,9.00
2018-04-19T00:23:28.094Z,10.07
2018-04-19T00:25:57.138Z,11.67
2018-04-19T00:28:25.553Z,10.10
2018-04-19T00:30:54.035Z,12.37
2018-04-19T00:33:23.189Z,11.70
2018-04-19T00:35:51.578Z,11.33
2018-04-19T00:38:19.963Z,10.57
2018-04-19T00:40:49.103Z,12.03
2018-04-19T00:43:17.536Z,11.87
2018-04-19T00:45:45.940Z,12.33
2018-04-19T00:48:15.536Z,12.00
2018-04-19T00:50:43.943Z,12.07
2018-04-19T00:53:12.385Z,13.23
2018-04-19T00:55:40.912Z,14.57
2018-04-19T00:58:09.362Z,13.73
2018-04-19T01:00:37.847Z,14.40
2018-04-19T01:03:07.082Z,16.00
2018-04-19T01:05:35.508Z,14.50
2018-04-19T01:08:04.054Z,15.67
2018-04-19T01:10:33.770Z,15.30
2018-04-19T01:13:02.178Z,14.80
2018-04-19T01:15:30.554Z,14.83
2018-04-19T01:17:58.949Z,16.30
2018-04-19T01:20:27.394Z,14.17
2018-04-19T01:22:55.736Z,15.03
2018-04-19T01:25:24.439Z,13.17
2018-04-19T01:27:52.977Z,12.90
2018-04-19T01:30:21.361Z,13.20
2018-04-19T01:32:50.650Z,14.20
2018-04-19T01:35:19.027Z,12.70
2018-04-19T01:37:47.407Z,13.10
2018-04-19T01:40:15.800Z,15.50
2018-04-19T01:42:44.216Z,13.43
2018-04-19T01:45:12.667Z,13.67
2018-04-19T01:47:41.553Z,14.60
2018-04-19T01:50:09.977Z,12.67
2018-04-19T01:52:38.417Z,14.50
2018-04-19T01:55:07.599Z,12.80
2018-04-19T01:57:36.397Z,13.23
2018-04-19T02:00:04.823Z,13.53
2018-04-19T02:02:33.464Z,15.10
2018-04-19T02:05:01.868Z,12.93
2018-04-19T02:07:30.241Z,14.37
2018-04-19T02:09:58.672Z,12.17
2018-04-19T02:12:27.003Z,13.60
2018-04-19T02:14:55.545Z,13.60
2018-04-19T02:17:24.628Z,12.87
2018-04-19T02:19:53.263Z,14.07
2018-04-19T02:22:21.621Z,12.50
2018-04-19T02:24:49.996Z,13.50
2018-04-19T02:27:18.382Z,13.60
2018-04-19T02:29:46.881Z,12.30
2018-04-19T02:32:16.036Z,13.40
2018-04-19T02:34:44.394Z,13.83
2018-04-19T02:37:12.780Z,13.57
2018-04-19T02:39:41.727Z,15.30
2018-04-19T02:42:10.404Z,14.67
2018-04-19T02:44:38.824Z,15.77
2018-04-19T02:47:08.284Z,15.10
2018-04-19T02:49:36.704Z,15.93
2018-04-19T02:52:05.120Z,14.97
2018-04-19T02:54:33.520Z,15.73
2018-04-19T02:57:01.882Z,15.97
2018-04-19T02:59:30.240Z,16.70
2018-04-19T03:01:58.637Z,14.77
2018-04-19T03:04:27.022Z,16.23
2018-04-19T03:06:55.394Z,15.00
2018-04-19T03:09:23.936Z,15.97
2018-04-19T03:11:52.297Z,15.80
2018-04-19T03:14:21.487Z,16.13
2018-04-19T03:16:50.068Z,14.87
2018-04-19T03:19:18.469Z,16.17
2018-04-19T03:21:46.861Z,16.50
2018-04-19T03:24:15.564Z,15.47
2018-04-19T03:26:43.977Z,15.17
2018-04-19T03:29:12.406Z,18.33
2018-04-19T03:31:41.009Z,15.90
2018-04-19T03:34:09.474Z,17.67
2018-04-19T03:36:37.895Z,18.30
2018-04-19T03:39:06.423Z,16.97
2018-04-19T03:41:35.942Z,17.57
2018-04-19T03:44:04.505Z,15.83
2018-04-19T03:46:33.007Z,17.07
2018-04-19T03:49:01.488Z,16.80
2018-04-19T03:51:31.256Z,17.20
2018-04-19T03:54:00.468Z,15.83
2018-04-19T03:56:28.870Z,15.00
2018-04-19T03:58:57.201Z,17.50
2018-04-19T04:01:25.933Z,15.40
2018-04-19T04:03:57.860Z,17.50
2018-04-19T04:06:26.258Z,16.40
2018-04-19T04:08:54.720Z,16.27
2018-04-19T04:11:23.032Z,18.50
2018-04-19T04:13:51.391Z,22.57
2018-04-19T04:16:31.862Z,17.80
2018-04-19T04:19:12.430Z,16.77
2018-04-19T04:21:52.552Z,16.73
2018-04-19T04:24:20.941Z,16.90
2018-04-19T04:26:49.365Z,16.73
2018-04-19T04:29:17.764Z,17.90
2018-04-19T04:31:46.168Z,16.87
2018-04-19T04:34:14.750Z,19.57
2018-04-19T04:36:43.980Z,18.00
2018-04-19T04:39:12.336Z,16.83
2018-04-19T04:41:40.941Z,17.60
2018-04-19T04:44:09.462Z,19.80
2018-04-19T04:46:37.871Z,16.27
2018-04-19T04:49:06.531Z,19.07
2018-04-19T04:51:35.557Z,17.10
2018-04-19T04:54:04.035Z,16.67
2018-04-19T04:56:32.537Z,17.27
2018-04-19T04:59:01.886Z,16.70
2018-04-19T05:01:30.239Z,17.23
2018-04-19T05:03:59.565Z,17.53
2018-04-19T05:06:28.029Z,18.60
2018-04-19T05:08:56.383Z,16.37
2018-04-19T05:11:24.778Z,17.40
2018-04-19T05:13:53.234Z,18.57
2018-04-19T05:16:22.668Z,17.13
2018-04-19T05:18:51.054Z,17.97
2018-04-19T05:21:20.080Z,18.83
2018-04-19T05:23:48.473Z,21.60
2018-04-19T05:26:16.983Z,18.30
2018-04-19T05:28:46.234Z,18.70
2018-04-19T05:31:14.620Z,20.40
2018-04-19T05:33:43.447Z,17.70
2018-04-19T05:36:12.541Z,19.20
2018-04-19T05:38:40.967Z,17.90
2018-04-19T05:41:09.407Z,17.20
2018-04-19T05:43:38.240Z,16.60
2018-04-19T05:46:06.871Z,18.80
2018-04-19T05:48:35.496Z,20.57
2018-04-19T05:51:04.134Z,17.93
2018-04-19T05:53:32.927Z,18.23
2018-04-19T05:56:01.311Z,20.20
2018-04-19T05:58:29.708Z,19.77
2018-04-19T06:00:58.100Z,19.20
2018-04-19T06:03:26.539Z,16.27
2018-04-19T06:05:56.148Z,17.27
2018-04-19T06:08:24.610Z,18.57
2018-04-19T06:10:53.012Z,17.83
2018-04-19T06:13:21.573Z,17.63
2018-04-19T06:15:50.101Z,16.13
2018-04-19T06:18:18.523Z,15.17
2018-04-19T06:20:48.435Z,15.70
2018-04-19T06:23:17.405Z,15.17
2018-04-19T06:25:46.867Z,13.47
2018-04-19T06:28:16.016Z,14.00
2018-04-19T06:30:44.497Z,14.90
2018-04-19T06:33:14.902Z,13.40
2018-04-19T06:35:43.517Z,13.33
2018-04-19T06:38:12.050Z,12.13
2018-04-19T06:40:40.543Z,11.83
2018-04-19T06:43:09.830Z,11.90
2018-04-19T06:45:38.824Z,12.83
2018-04-19T06:48:07.311Z,11.17
2018-04-19T06:50:35.889Z,11.80
2018-04-19T06:53:04.267Z,9.87
2018-04-19T06:55:32.701Z,12.93
2018-04-19T06:58:02.766Z,11.43
2018-04-19T07:00:31.144Z,10.50
2018-04-19T07:02:59.650Z,11.60
2018-04-19T07:05:28.368Z,11.17
2018-04-19T07:07:56.738Z,8.77
2018-04-19T07:10:25.288Z,7.90
2018-04-19T07:12:53.912Z,10.13
2018-04-19T07:15:22.276Z,8.67
2018-04-19T07:17:50.639Z,6.70
2018-04-19T07:20:19.114Z,7.10
2018-04-19T07:22:47.738Z,5.90
2018-04-19T07:25:16.259Z,6.70
2018-04-19T07:27:44.769Z,6.17
2018-04-19T07:30:13.230Z,5.33
2018-04-19T07:32:41.759Z,7.87
2018-04-19T07:35:10.290Z,5.63
2018-04-19T07:37:39.093Z,6.10
2018-04-19T07:40:07.565Z,6.57
2018-04-19T07:42:36.260Z,5.60
2018-04-19T07:45:04.756Z,6.20
2018-04-19T07:47:33.134Z,15.20
2018-04-19T07:50:02.507Z,6.30
2018-04-19T07:52:30.886Z,5.87
2018-04-19T07:54:59.266Z,7.37
2018-04-19T07:57:27.792Z,6.60
2018-04-19T07:59:57.181Z,6.70
2018-04-19T08:02:25.667Z,8.13
2018-04-19T08:04:54.055Z,7.53
2018-04-19T08:07:22.415Z,7.53
2018-04-19T08:09:50.784Z,7.70
2018-04-19T08:12:19.459Z,9.00
2018-04-19T08:14:47.847Z,7.67
2018-04-19T08:17:16.347Z,7.97
2018-04-19T08:19:44.784Z,7.83
2018-04-19T08:22:13.311Z,8.07
2018-04-19T08:24:41.716Z,7.77
2018-04-19T08:27:10.542Z,8.20
2018-04-19T08:29:39.442Z,8.13
2018-04-19T08:32:07.974Z,8.97
2018-04-19T08:34:37.109Z,8.70
2018-04-19T08:37:05.630Z,8.57
2018-04-19T08:39:34.209Z,8.07
2018-04-19T08:42:02.657Z,8.40
2018-04-19T08:44:31.027Z,8.80
2018-04-19T08:47:00.019Z,9.10
2018-04-19T08:49:28.440Z,9.43
2018-04-19T08:51:56.788Z,9.53
2018-04-19T08:54:25.203Z,9.80
2018-04-19T08:56:54.392Z,10.03
2018-04-19T08:59:22.772Z,8.40
2018-04-19T09:01:51.142Z,10.40
2018-04-19T09:04:20.244Z,9.67
2018-04-19T09:06:48.729Z,9.83
2018-04-19T09:09:17.113Z,9.93
2018-04-19T09:11:45.548Z,10.67
2018-04-19T09:14:13.999Z,9.50
2018-04-19T09:16:42.413Z,9.90
2018-04-19T09:19:10.953Z,9.17
2018-04-19T09:21:39.785Z,9.50
2018-04-19T09:24:08.211Z,8.50
2018-04-19T09:26:37.835Z,10.27
2018-04-19T09:29:06.542Z,9.43
2018-04-19T09:31:35.122Z,8.97
2018-04-19T09:34:04.074Z,9.77
2018-04-19T09:36:32.590Z,9.30
2018-04-19T09:39:01.005Z,9.30
2018-04-19T09:41:29.410Z,10.40
2018-04-19T09:43:57.891Z,10.20
2018-04-19T09:46:26.529Z,9.13
2018-04-19T09:48:55.505Z,8.43
2018-04-19T09:51:23.881Z,9.63
2018-04-19T09:53:52.462Z,9.10
2018-04-19T09:56:20.983Z,8.70
2018-04-19T09:59:01.146Z,9.77
2018-04-19T10:01:30.306Z,9.00
2018-04-19T10:03:58.801Z,9.87
2018-04-19T10:06:27.231Z,9.47
2018-04-19T10:08:55.724Z,10.20
2018-04-19T10:11:24.174Z,10.23
2018-04-19T10:13:52.573Z,9.40
2018-04-19T10:16:22.508Z,9.33
2018-04-19T10:18:50.878Z,10.00
2018-04-19T10:21:19.459Z,9.93
2018-04-19T10:23:47.892Z,10.00
2018-04-19T10:26:16.232Z,10.47
2018-04-19T10:28:44.818Z,9.77
2018-04-19T10:31:13.284Z,10.77
2018-04-19T10:33:41.657Z,10.33
2018-04-19T10:36:10.616Z,10.57
2018-04-19T10:38:39.263Z,12.07
2018-04-19T10:41:08.038Z,10.47
2018-04-19T10:43:36.623Z,10.80
2018-04-19T10:46:06.116Z,11.87
2018-04-19T10:48:35.685Z,11.33
2018-04-19T10:51:04.317Z,10.73
2018-04-19T10:53:33.008Z,12.27
2018-04-19T10:56:01.762Z,12.80
2018-04-19T10:58:30.115Z,14.47
2018-04-19T11:00:59.291Z,14.50
2018-04-19T11:03:27.692Z,13.07
2018-04-19T11:05:57.035Z,15.47
2018-04-19T11:08:25.558Z,14.13
2018-04-19T11:10:53.956Z,13.70
2018-04-19T11:13:23.441Z,15.50
2018-04-19T11:15:51.845Z,13.70
2018-04-19T11:18:20.723Z,14.10
2018-04-19T11:20:49.765Z,15.13
2018-04-19T11:23:19.782Z,14.00
2018-04-19T11:25:48.243Z,14.37
2018-04-19T11:28:18.723Z,14.73
2018-04-19T11:30:48.582Z,14.60
2018-04-19T11:33:17.103Z,16.53
2018-04-19T11:35:45.645Z,16.00
2018-04-19T11:38:15.181Z,16.17
2018-04-19T11:40:43.655Z,17.00
2018-04-19T11:43:12.200Z,16.03
2018-04-19T11:45:41.011Z,15.67
2018-04-19T11:48:09.420Z,18.00
2018-04-19T11:50:38.208Z,16.10
2018-04-19T11:53:06.944Z,17.50
2018-04-19T11:55:35.498Z,15.47
2018-04-19T11:58:03.906Z,16.70
2018-04-19T12:00:33.058Z,16.50
2018-04-19T12:03:02.383Z,15.70
2018-04-19T12:05:30.905Z,16.20
2018-04-19T12:07:59.300Z,18.83
2018-04-19T12:10:27.972Z,14.50
2018-04-19T12:12:56.316Z,14.97
2018-04-19T12:15:24.802Z,14.70
2018-04-19T12:17:53.184Z,16.40
2018-04-19T12:20:21.638Z,15.60
2018-04-19T12:22:50.507Z,15.80
2018-04-19T12:25:18.906Z,16.73
2018-04-19T12:27:47.370Z,14.33
2018-04-19T12:30:16.344Z,14.30
2018-04-19T12:32:44.748Z,14.43
2018-04-19T12:35:13.246Z,14.53
2018-04-19T12:37:42.199Z,16.30
2018-04-19T12:40:10.565Z,15.30
2018-04-19T12:42:39.080Z,13.67
2018-04-19T12:45:07.675Z,14.27
2018-04-19T12:47:36.126Z,13.20
2018-04-19T12:50:04.636Z,14.13
2018-04-19T12:52:33.086Z,12.90
2018-04-19T12:55:01.617Z,13.53
2018-04-19T12:57:29.994Z,13.80
2018-04-19T12:59:59.063Z,14.77
2018-04-19T13:02:27.443Z,14.40
2018-04-19T13:04:55.881Z,14.40
2018-04-19T13:07:24.433Z,16.27
2018-04-19T13:09:52.886Z,15.27
2018-04-19T13:12:21.554Z,13.87
2018-04-19T13:14:49.928Z,14.70
2018-04-19T13:17:18.350Z,14.67
2018-04-19T13:19:46.880Z,15.53
2018-04-19T13:22:15.434Z,14.30
2018-04-19T13:24:43.897Z,15.20
2018-04-19T13:27:12.373Z,15.30
2018-04-19T13:29:42.547Z,13.63
2018-04-19T13:32:11.026Z,14.90
2018-04-19T13:34:39.423Z,13.70
2018-04-19T13:37:08.496Z,13.30
2018-04-19T13:39:37.082Z,14.40
2018-04-19T13:42:05.521Z,13.83
2018-04-19T13:44:34.066Z,13.23
2018-04-19T13:47:03.195Z,16.17
2018-04-19T13:49:31.689Z,14.80
2018-04-19T13:52:02.587Z,13.70
2018-04-19T13:54:30.960Z,14.10
2018-04-19T13:56:59.316Z,12.90
2018-04-19T13:59:28.482Z,14.60
2018-04-19T14:01:56.909Z,14.40
2018-04-19T14:04:25.428Z,13.90
2018-04-19T14:06:54.385Z,14.30
2018-04-19T14:09:22.888Z,13.70
2018-04-19T14:11:51.371Z,14.13
2018-04-19T14:14:20.886Z,13.90
2018-04-19T14:16:49.624Z,12.87
2018-04-19T14:19:19.507Z,14.33
2018-04-19T14:21:48.106Z,14.90
2018-04-19T14:24:16.484Z,15.20
2018-04-19T14:26:44.907Z,12.70
2018-04-19T14:29:13.381Z,13.13
2018-04-19T14:31:42.586Z,12.20
2018-04-19T14:34:11.654Z,13.07
2018-04-19T14:36:40.264Z,12.77
2018-04-19T14:39:09.398Z,11.40
2018-04-19T14:41:38.026Z,13.33
2018-04-19T14:44:06.609Z,12.80
2018-04-19T14:46:35.630Z,12.60
2018-04-19T14:49:04.140Z,13.10
2018-04-19T14:51:32.644Z,13.60
2018-04-19T14:54:01.041Z,11.50
2018-04-19T14:56:29.417Z,12.50
2018-04-19T14:58:59.082Z,14.67
2018-04-19T15:01:27.430Z,13.97
2018-04-19T15:03:55.828Z,13.00
2018-04-19T15:06:24.424Z,14.47
2018-04-19T15:08:52.795Z,14.70
2018-04-19T15:11:21.225Z,13.30
2018-04-19T15:13:50.176Z,12.67
2018-04-19T15:16:18.707Z,14.27
2018-04-19T15:18:47.106Z,14.80
2018-04-19T15:21:15.868Z,12.93
2018-04-19T15:23:44.295Z,15.40
2018-04-19T15:26:12.724Z,12.97
2018-04-19T15:28:41.873Z,13.50
2018-04-19T15:31:10.368Z,14.10
2018-04-19T15:33:39.596Z,13.63
2018-04-19T15:36:08.195Z,14.03
2018-04-19T15:38:36.777Z,15.50
2018-04-19T15:41:05.291Z,14.30
2018-04-19T15:43:33.772Z,11.90
2018-04-19T15:46:02.448Z,14.37
2018-04-19T15:48:30.823Z,13.50
2018-04-19T15:50:59.246Z,15.53
2018-04-19T15:53:27.628Z,13.07
2018-04-19T15:55:56.034Z,14.30
2018-04-19T15:58:24.437Z,14.83
2018-04-19T16:00:52.820Z,12.80
2018-04-19T16:03:21.187Z,13.97
2018-04-19T16:05:50.337Z,12.40
2018-04-19T16:08:18.853Z,12.70
2018-04-19T16:10:47.546Z,13.17
2018-04-19T16:13:16.127Z,13.57
2018-04-19T16:15:44.709Z,12.47
2018-04-19T16:18:13.508Z,13.30
2018-04-19T16:20:42.799Z,13.30
2018-04-19T16:23:11.279Z,12.97
2018-04-19T16:25:39.772Z,12.60
2018-04-19T16:28:08.256Z,14.10
2018-04-19T16:30:36.821Z,13.73
2018-04-19T16:33:05.400Z,13.53
2018-04-19T16:35:33.988Z,12.40
2018-04-19T16:38:02.425Z,13.60
2018-04-19T16:40:30.841Z,12.33
2018-04-19T16:42:59.432Z,13.50
2018-04-19T16:45:27.832Z,13.73
2018-04-19T16:47:56.305Z,13.60
2018-04-19T16:50:24.874Z,12.43
2018-04-19T16:52:53.302Z,10.90
2018-04-19T16:55:21.685Z,12.80
2018-04-19T16:57:50.329Z,12.57
2018-04-19T17:00:18.898Z,12.70
2018-04-19T17:02:47.634Z,11.90
2018-04-19T17:05:16.479Z,12.57
2018-04-19T17:07:45.273Z,13.87
2018-04-19T17:10:13.747Z,12.77
2018-04-19T17:12:42.326Z,12.10
2018-04-19T17:15:11.289Z,11.90
2018-04-19T17:17:41.042Z,12.87
2018-04-19T17:20:09.773Z,11.60
2018-04-19T17:22:38.311Z,12.53
2018-04-19T17:25:06.821Z,11.83
2018-04-19T17:27:36.809Z,13.30
2018-04-19T17:30:05.298Z,12.17
2018-04-19T17:32:33.695Z,12.07
2018-04-19T17:35:02.181Z,12.17
2018-04-19T17:37:31.419Z,12.63
2018-04-19T17:39:59.925Z,13.23
2018-04-19T17:42:29.200Z,14.60
2018-04-19T17:44:57.551Z,13.57
2018-04-19T17:47:26.061Z,11.60
2018-04-19T17:49:55.451Z,14.17
2018-04-19T17:52:24.049Z,12.77
2018-04-19T17:54:52.532Z,10.57
2018-04-19T17:57:21.024Z,12.77
2018-04-19T17:59:49.485Z,13.70
2018-04-19T18:02:17.935Z,12.07
2018-04-19T18:04:46.786Z,12.30
2018-04-19T18:07:15.911Z,13.23
2018-04-19T18:09:45.939Z,16.13
2018-04-19T18:12:15.117Z,11.60
2018-04-19T18:14:43.998Z,12.83
2018-04-19T18:17:12.512Z,11.30
2018-04-19T18:19:41.469Z,12.07
2018-04-19T18:22:10.203Z,13.63
2018-04-19T18:24:38.709Z,12.67
2018-04-19T18:27:07.285Z,19.30
2018-04-19T18:29:35.804Z,15.37
2018-04-19T18:32:04.633Z,12.47
2018-04-19T18:34:33.610Z,11.67
2018-04-19T18:37:02.098Z,11.90
2018-04-19T18:39:30.489Z,16.80
2018-04-19T18:41:59.594Z,13.63
2018-04-19T18:44:28.050Z,11.67
2018-04-19T18:46:57.534Z,12.97
2018-04-19T18:49:25.924Z,12.57
2018-04-19T18:51:54.328Z,12.77
2018-04-19T18:54:22.732Z,12.23
2018-04-19T18:56:51.256Z,12.23
2018-04-19T18:59:19.688Z,12.83
2018-04-19T19:01:48.487Z,14.67
2018-04-19T19:04:17.067Z,14.37
2018-04-19T19:06:46.508Z,18.10
2018-04-19T19:09:15.105Z,14.13
2018-04-19T19:11:44.929Z,13.20
2018-04-19T19:14:13.386Z,14.00
2018-04-19T19:16:41.823Z,14.47
2018-04-19T19:19:22.941Z,17.50
2018-04-19T19:21:51.394Z,15.60
2018-04-19T19:24:19.804Z,14.83
2018-04-19T19:26:48.211Z,13.03
2018-04-19T19:29:16.667Z,14.73
2018-04-19T19:31:45.400Z,13.40
2018-04-19T19:34:14.707Z,15.47
2018-04-19T19:36:43.556Z,15.40
2018-04-19T19:39:12.452Z,14.10
2018-04-19T19:41:41.143Z,12.27
2018-04-19T19:44:10.590Z,13.03
2018-04-19T19:46:39.233Z,12.97
2018-04-19T19:49:07.720Z,12.40
2018-04-19T19:51:36.233Z,10.73
2018-04-19T19:54:05.297Z,11.30
2018-04-19T19:56:35.181Z,10.60
2018-04-19T19:59:04.142Z,12.40
2018-04-19T20:01:32.619Z,10.57
2018-04-19T20:04:06.591Z,11.07
2018-04-19T20:06:35.161Z,11.23
2018-04-19T20:09:03.556Z,9.60
2018-04-19T20:11:32.066Z,9.90
2018-04-19T20:14:00.545Z,9.00
2018-04-19T20:16:29.305Z,10.10
2018-04-19T20:18:57.964Z,8.93
2018-04-19T20:21:26.545Z,10.00
2018-04-19T20:23:54.934Z,8.67
2018-04-19T20:26:23.641Z,8.67
2018-04-19T20:28:52.536Z,8.47
2018-04-19T20:31:20.993Z,7.13
2018-04-19T20:33:49.403Z,8.30
2018-04-19T20:36:17.885Z,8.27
2018-04-19T20:38:46.700Z,7.93
2018-04-19T20:41:15.563Z,9.00
2018-04-19T20:43:44.561Z,7.73
2018-04-19T20:46:13.216Z,7.80
2018-04-19T20:48:41.868Z,8.30
2018-04-19T20:51:10.425Z,7.20
2018-04-19T20:53:39.111Z,7.87
2018-04-19T20:56:07.758Z,8.70
2018-04-19T20:58:36.649Z,8.63
2018-04-19T21:01:05.662Z,8.70
2018-04-19T21:03:34.430Z,10.00
2018-04-19T21:06:02.809Z,9.40
2018-04-19T21:08:31.214Z,9.50
2018-04-19T21:11:00.043Z,10.17
2018-04-19T21:13:28.373Z,8.40
2018-04-19T21:15:56.838Z,9.13
2018-04-19T21:18:25.485Z,8.43
2018-04-19T21:20:53.879Z,9.23
2018-04-19T21:23:22.292Z,8.60
2018-04-19T21:25:50.881Z,8.13
2018-04-19T21:28:19.403Z,9.83
2018-04-19T21:30:47.946Z,8.80
2018-04-19T21:33:17.066Z,9.27
2018-04-19T21:35:46.026Z,9.87
2018-04-19T21:38:14.816Z,8.70
2018-04-19T21:40:43.337Z,9.50
2018-04-19T21:43:13.623Z,8.93
2018-04-19T21:45:44.263Z,9.00
2018-04-19T21:48:15.818Z,8.83
2018-04-19T21:50:44.275Z,9.87
2018-04-19T21:53:12.929Z,10.80
2018-04-19T21:55:41.855Z,11.27
2018-04-19T21:58:10.761Z,10.87
2018-04-19T22:00:39.670Z,9.90
2018-04-19T22:03:09.321Z,12.87
2018-04-19T22:05:37.854Z,13.37
2018-04-19T22:08:06.418Z,11.20
2018-04-19T22:10:35.270Z,13.77
2018-04-19T22:13:03.685Z,14.20
2018-04-19T22:15:32.066Z,19.43
2018-04-19T22:18:00.448Z,13.23
2018-04-19T22:20:28.896Z,10.00
2018-04-19T22:22:57.288Z,12.53
2018-04-19T22:25:25.893Z,9.80
2018-04-19T22:27:54.265Z,12.77
2018-04-19T22:30:22.634Z,11.23
2018-04-19T22:32:51.448Z,10.70
2018-04-19T22:35:19.928Z,11.50
2018-04-19T22:37:48.321Z,10.20
2018-04-19T22:40:16.797Z,9.57
2018-04-19T22:42:45.575Z,10.67
2018-04-19T22:45:14.163Z,13.20
2018-04-19T22:47:42.678Z,12.57
2018-04-19T22:50:11.232Z,14.20
2018-04-19T22:52:39.818Z,10.00
2018-04-19T22:55:08.644Z,11.60
2018-04-19T22:57:37.104Z,11.30
2018-04-19T23:00:05.573Z,11.47
2018-04-19T23:02:34.002Z,12.57
2018-04-19T23:05:02.521Z,9.70
2018-04-19T23:07:30.898Z,13.40
2018-04-19T23:10:00.520Z,11.40
2018-04-19T23:12:28.885Z,13.20
2018-04-19T23:14:57.277Z,12.53
2018-04-19T23:17:26.666Z,13.53
2018-04-19T23:19:55.082Z,13.03
2018-04-19T23:22:35.273Z,11.80
2018-04-19T23:25:03.702Z,13.13
2018-04-19T23:27:32.049Z,12.70
2018-04-19T23:30:00.460Z,12.40
2018-04-19T23:32:29.022Z,10.50
2018-04-19T23:34:57.568Z,11.47
2018-04-19T23:37:25.936Z,12.30
2018-04-19T23:39:54.344Z,12.23
2018-04-19T23:42:22.843Z,12.03
2018-04-19T23:44:51.226Z,12.00
2018-04-19T23:47:19.624Z,11.10
2018-04-19T23:49:48.099Z,12.30
2018-04-19T23:52:16.886Z,12.73
2018-04-19T23:54:45.334Z,11.07
2018-04-19T23:57:13.760Z,12.80
2018-04-19T23:59:42.520Z,12.00
